Date,TemperatureHighF,TemperatureAvgF,TemperatureLowF,DewpointHighF,DewpointAvgF,DewpointLowF,HumidityHigh,HumidityAvg,HumidityLow,PressureMaxIn,PressureMinIn,WindSpeedMaxMPH,WindSpeedAvgMPH,GustSpeedMaxMPH,PrecipitationSumIn
2013-8-1,86.5,75.3,70.0,77.9,72.4,69.6,99,91,70,29.87,29.71,4,1,0,0.96
2013-8-2,98.2,78.0,66.0,74.7,70.6,65.7,99,81,43,29.88,29.74,3,1,0,0.08
2013-8-3,93.2,78.1,70.2,79.2,74.1,69.9,99,89,56,29.87,29.77,5,1,0,0.12
2013-8-4,88.0,74.8,64.6,73.8,67.8,62.6,99,82,47,29.90,29.73,7,1,0,0.00
2013-8-5,88.3,72.7,60.3,70.4,64.0,60.0,99,77,48,29.97,29.88,4,0,0,0.00
2013-8-6,84.6,74.7,66.7,71.8,68.3,64.0,99,82,61,29.94,29.85,3,1,0,0.10
2013-8-7,89.1,76.5,65.1,73.7,69.6,64.8,99,81,54,29.98,29.89,4,1,0,0.00
2013-8-8,92.8,79.0,68.5,76.0,72.2,68.2,99,82,51,29.94,29.86,5,1,0,0.00
2013-8-9,96.8,82.2,73.0,77.7,75.0,72.7,99,81,53,29.92,29.84,7,1,0,0.00
2013-8-10,95.5,80.9,73.6,81.0,75.6,71.8,99,85,56,29.96,29.86,4,1,0,0.47
2013-8-11,96.4,79.9,71.2,78.8,74.4,70.9,99,86,53,29.97,29.87,3,1,0,0.01
2013-8-12,101.5,81.1,71.1,76.2,73.3,70.3,99,80,39,29.91,29.80,5,1,0,0.00
2013-8-13,91.8,77.4,70.3,81.2,74.6,70.0,99,92,61,29.86,29.63,12,1,0,2.38
2013-8-14,77.0,70.8,59.5,72.7,66.6,59.2,99,88,67,29.95,29.66,6,1,0,0.00
2013-8-15,79.3,65.3,57.0,64.5,59.4,56.7,99,84,48,30.02,29.94,3,1,0,0.00
2013-8-16,74.8,65.5,56.7,63.9,60.8,56.4,99,86,61,30.03,29.95,5,1,0,0.00
2013-8-17,73.4,68.0,61.7,72.8,67.0,61.4,99,97,93,30.04,29.97,4,1,0,0.22
2013-8-18,86.7,74.0,67.5,71.9,69.7,66.7,99,87,61,30.09,29.97,6,2,0,0.01
2013-8-19,77.7,70.2,66.0,73.2,69.0,65.7,99,96,83,30.08,29.97,4,0,0,1.36
2013-8-20,85.3,74.9,66.0,76.6,71.5,65.7,99,90,70,30.06,29.97,3,0,0,0.00
2013-8-21,88.0,75.8,70.0,80.4,73.4,69.7,99,93,70,30.10,29.97,4,0,0,1.09
2013-8-22,98.4,78.3,67.8,77.2,71.7,67.5,99,83,44,30.02,29.86,7,1,0,0.00
2013-8-23,92.5,77.1,67.6,74.8,71.4,67.3,99,84,56,29.94,29.78,7,2,0,0.00
2013-8-24,86.0,72.3,62.4,67.7,63.7,61.1,99,77,45,30.17,29.94,7,2,0,0.00
2013-8-25,84.7,68.1,57.0,65.3,60.5,56.7,99,80,44,30.27,30.15,8,1,0,0.00
2013-8-26,92.3,67.5,51.3,66.5,59.2,51.0,99,79,36,30.18,29.98,4,0,0,0.00
2013-8-27,90.5,72.0,57.6,75.5,66.2,57.3,99,85,50,29.99,29.83,4,1,0,0.00
2013-8-28,84.4,75.7,66.6,77.7,72.9,66.3,99,92,72,29.84,29.72,3,0,0,0.01
2013-8-29,87.4,78.9,70.0,76.0,73.8,69.7,99,85,66,29.88,29.67,8,2,0,0.00
2013-8-30,91.8,74.9,65.7,72.0,68.1,65.0,99,82,45,29.93,29.81,4,0,0,0.00
2013-8-31,89.6,75.9,64.8,75.0,70.2,64.5,99,84,59,29.84,29.73,4,1,0,0.00